Time;durP1;ratioP1;P1;durP2;ratioP2;P2;SDS_P1;SDS_P2;PMS_P1;PMS_P2;Temp;Humidity;BMP_temperature;BMP_pressure;BME280_temperature;BME280_humidity;BME280_pressure;Samples;Min_cycle;Max_cycle;Signal;HPM_P1;HPM_P2
2021/07/18 00:02:46;;;;;;;6.72;2.38;;;;;;;19.58;74.64;100312.97;10340474;28;20045;-72
2021/07/18 00:07:48;;;;;;;4.70;2.08;;;;;;;19.40;74.85;100329.19;10340648;28;20471;-73
2021/07/18 00:12:50;;;;;;;7.15;2.28;;;;;;;19.39;74.86;100324.81;10340416;28;20081;-75
2021/07/18 00:17:51;;;;;;;9.65;2.55;;;;;;;19.19;76.08;100321.69;10339794;28;20408;-73
2021/07/18 00:22:53;;;;;;;5.70;2.47;;;;;;;19.24;75.55;100315.09;10340248;28;20077;-73
2021/07/18 00:27:55;;;;;;;6.97;2.80;;;;;;;19.16;75.07;100306.72;10340056;28;20057;-73
2021/07/18 00:32:57;;;;;;;7.03;2.33;;;;;;;18.96;76.14;100308.00;10337820;28;20486;-74
2021/07/18 00:37:58;;;;;;;7.00;2.42;;;;;;;19.00;76.52;100306.00;10339259;28;20074;-74
2021/07/18 00:43:00;;;;;;;6.88;2.72;;;;;;;18.83;77.21;100307.03;10339281;28;20073;-74
2021/07/18 00:48:02;;;;;;;5.50;2.60;;;;;;;18.84;76.75;100306.94;10339017;28;20093;-73
2021/07/18 00:53:04;;;;;;;5.13;2.25;;;;;;;18.93;76.21;100304.66;10338624;28;20061;-73
2021/07/18 00:58:06;;;;;;;7.93;2.50;;;;;;;18.96;76.13;100313.31;10338838;28;20057;-73
2021/07/18 01:03:09;;;;;;;6.88;2.70;;;;;;;19.06;75.62;100311.78;10338865;28;20048;-74
2021/07/18 01:08:11;;;;;;;6.00;2.30;;;;;;;19.31;73.65;100312.91;10339376;28;20054;-73
2021/07/18 01:13:12;;;;;;;11.35;2.50;;;;;;;19.07;75.16;100309.97;10339337;28;20042;-72
2021/07/18 01:18:14;;;;;;;6.75;2.63;;;;;;;19.03;75.99;100311.13;10337477;28;20046;-73
2021/07/18 01:23:16;;;;;;;6.28;2.50;;;;;;;19.33;73.59;100311.00;10337448;28;20042;-73
2021/07/18 01:28:19;;;;;;;6.72;3.28;;;;;;;18.98;76.47;100315.88;10337000;28;20463;-72
2021/07/18 01:33:21;;;;;;;5.57;2.70;;;;;;;18.94;76.28;100312.53;10337602;28;20046;-72
2021/07/18 01:38:23;;;;;;;7.75;3.17;;;;;;;18.85;76.93;100319.28;10336693;28;20047;-72
2021/07/18 01:43:24;;;;;;;5.72;2.92;;;;;;;19.07;75.84;100318.81;10336155;28;20170;-72
2021/07/18 01:48:26;;;;;;;7.90;2.92;;;;;;;18.95;76.27;100305.41;10336773;28;20477;-74
2021/07/18 01:53:27;;;;;;;8.23;2.78;;;;;;;18.97;75.91;100317.69;10336190;28;20053;-74
2021/07/18 01:58:29;;;;;;;9.43;2.63;;;;;;;18.88;76.39;100326.25;10336542;28;20042;-74
2021/07/18 02:03:31;;;;;;;6.50;2.65;;;;;;;18.83;76.41;100323.03;10335511;28;20089;-74
2021/07/18 02:08:32;;;;;;;5.72;2.88;;;;;;;18.71;76.04;100319.28;10335634;28;20050;-74
2021/07/18 02:13:34;;;;;;;5.22;2.63;;;;;;;18.76;75.50;100327.84;10335939;28;20408;-75
2021/07/18 02:18:36;;;;;;;5.18;2.92;;;;;;;18.56;76.72;100329.03;10335027;28;20056;-73
2021/07/18 02:23:37;;;;;;;5.18;2.53;;;;;;;18.52;76.71;100316.84;10335499;28;20038;-74
2021/07/18 02:28:39;;;;;;;5.97;2.10;;;;;;;18.79;75.96;100327.66;10335093;28;20199;-74
2021/07/18 02:33:41;;;;;;;5.40;2.35;;;;;;;18.40;76.37;100322.91;10334864;28;20046;-74
2021/07/18 02:38:42;;;;;;;5.53;2.20;;;;;;;18.55;75.63;100329.09;10334581;28;20398;-74
2021/07/18 02:43:44;;;;;;;5.05;2.67;;;;;;;18.47;75.20;100329.59;10334711;28;20045;-74
2021/07/18 02:48:45;;;;;;;5.00;2.67;;;;;;;18.42;75.55;100331.69;10333908;28;20057;-74
2021/07/18 02:53:47;;;;;;;8.43;2.00;;;;;;;18.53;74.18;100337.19;10333143;28;20512;-74
2021/07/18 02:58:48;;;;;;;6.43;2.20;;;;;;;18.47;74.77;100336.72;10333740;28;20046;-74
2021/07/18 03:03:50;;;;;;;5.20;2.05;;;;;;;18.24;75.23;100338.94;10333434;28;20057;-75
2021/07/18 03:08:52;;;;;;;5.63;2.47;;;;;;;18.32;75.85;100343.78;10332027;28;20046;-74
2021/07/18 03:13:53;;;;;;;4.95;2.10;;;;;;;18.30;75.92;100335.91;10332949;28;20043;-73
2021/07/18 03:18:55;;;;;;;6.55;2.22;;;;;;;18.13;76.27;100344.88;10333019;28;20058;-74
2021/07/18 03:23:56;;;;;;;11.00;2.47;;;;;;;18.11;76.27;100346.78;10332789;28;20050;-75
2021/07/18 03:28:58;;;;;;;4.18;2.47;;;;;;;17.87;77.15;100346.38;10331481;28;20058;-75
2021/07/18 03:34:00;;;;;;;11.35;2.55;;;;;;;17.96;77.14;100342.31;10333390;28;20384;-75
2021/07/18 03:39:01;;;;;;;5.30;2.72;;;;;;;18.12;76.58;100342.31;10331337;28;20050;-75
2021/07/18 03:44:03;;;;;;;7.78;2.75;;;;;;;18.10;76.37;100344.19;10331547;28;20054;-74
2021/07/18 03:49:05;;;;;;;13.38;3.03;;;;;;;17.85;76.77;100364.22;10333025;28;20512;-75
2021/07/18 03:54:06;;;;;;;3.90;2.20;;;;;;;17.86;76.07;100363.28;10333225;28;20485;-75
2021/07/18 03:59:08;;;;;;;6.93;2.78;;;;;;;17.80;76.89;100360.13;10332656;28;20046;-75
2021/07/18 04:04:09;;;;;;;7.30;2.95;;;;;;;17.87;76.46;100367.66;10334893;28;20084;-75
2021/07/18 04:09:11;;;;;;;7.15;2.95;;;;;;;17.85;75.15;100363.38;10341429;28;20061;-75
2021/07/18 04:14:12;;;;;;;5.57;2.63;;;;;;;17.69;75.43;100362.47;10340008;28;20435;-75
2021/07/18 04:19:14;;;;;;;6.72;2.67;;;;;;;17.61;76.68;100358.44;10339846;28;20050;-74
2021/07/18 04:24:15;;;;;;;4.57;2.70;;;;;;;17.28;78.00;100374.44;10339463;28;20382;-74
2021/07/18 04:29:17;;;;;;;9.77;2.80;;;;;;;17.56;77.58;100379.09;10337850;28;20054;-75
2021/07/18 04:34:19;;;;;;;8.18;3.28;;;;;;;17.34;77.78;100382.06;10338317;28;20072;-74
2021/07/18 04:39:20;;;;;;;5.07;2.30;;;;;;;17.39;78.32;100382.69;10338296;28;20050;-74
2021/07/18 04:44:22;;;;;;;5.35;2.80;;;;;;;17.33;78.62;100390.16;10337990;28;20469;-75
2021/07/18 04:49:24;;;;;;;4.35;2.15;;;;;;;17.57;77.85;100387.94;10339540;28;20042;-75
2021/07/18 04:54:26;;;;;;;9.45;2.65;;;;;;;17.51;78.50;100386.47;10338764;28;20040;-74
2021/07/18 04:59:28;;;;;;;13.45;2.60;;;;;;;17.81;77.01;100391.94;10339796;28;20457;-74
2021/07/18 05:04:29;;;;;;;7.68;2.90;;;;;;;17.55;78.86;100388.03;10339061;28;20046;-74
2021/07/18 05:09:31;;;;;;;5.50;2.83;;;;;;;17.83;77.49;100399.81;10337582;28;20072;-75
2021/07/18 05:14:32;;;;;;;5.60;2.67;;;;;;;17.90;76.41;100388.75;10339307;28;20093;-75
2021/07/18 05:19:34;;;;;;;9.10;2.35;;;;;;;17.78;77.93;100396.56;10338491;28;20156;-74
2021/07/18 05:24:36;;;;;;;3.20;2.60;;;;;;;17.71;78.30;100406.66;10338627;28;20102;-74
2021/07/18 05:29:38;;;;;;;7.82;2.92;;;;;;;17.96;77.06;100395.53;10337677;28;20050;-74
2021/07/18 05:34:39;;;;;;;7.05;2.95;;;;;;;18.14;76.19;100401.59;10336935;28;20042;-73
2021/07/18 05:39:41;;;;;;;3.88;2.20;;;;;;;18.52;74.22;100407.38;10337580;28;20054;-74
2021/07/18 05:44:42;;;;;;;4.32;2.42;;;;;;;18.43;76.17;100404.41;10335626;28;20549;-74
2021/07/18 05:49:44;;;;;;;5.05;2.28;;;;;;;18.60;74.92;100407.78;10336926;28;20054;-75
2021/07/18 05:54:46;;;;;;;4.32;2.60;;;;;;;18.77;74.39;100416.59;10336985;28;20121;-73
2021/07/18 05:59:47;;;;;;;3.42;2.75;;;;;;;18.50;75.11;100417.22;10335542;28;20050;-75
2021/07/18 06:04:49;;;;;;;5.15;2.67;;;;;;;18.62;75.53;100415.66;10337217;28;20046;-74
2021/07/18 06:09:50;;;;;;;5.03;2.13;;;;;;;18.91;74.51;100424.63;10335826;28;20105;-74
2021/07/18 06:14:52;;;;;;;5.07;2.05;;;;;;;19.29;73.00;100416.09;10335929;28;20113;-74
2021/07/18 06:19:53;;;;;;;5.32;2.38;;;;;;;19.11;73.57;100421.59;10336167;28;20046;-75
2021/07/18 06:24:55;;;;;;;6.07;2.28;;;;;;;19.35;73.11;100427.25;10336026;28;20070;-74
2021/07/18 06:29:57;;;;;;;6.80;2.53;;;;;;;19.26;72.38;100426.97;10334479;28;20499;-74
2021/07/18 06:34:58;;;;;;;5.20;2.78;;;;;;;19.24;72.54;100434.19;10335586;28;20043;-74
2021/07/18 06:40:00;;;;;;;5.20;2.92;;;;;;;19.20;73.57;100425.50;10334142;28;20053;-74
2021/07/18 06:45:03;;;;;;;4.72;2.30;;;;;;;19.47;72.67;100425.59;10334531;28;20121;-75
2021/07/18 06:50:05;;;;;;;4.68;2.10;;;;;;;20.34;69.00;100412.00;10334935;28;20042;-74
2021/07/18 06:55:08;;;;;;;9.63;2.58;;;;;;;20.57;68.56;100410.50;10335791;28;20109;-74
2021/07/18 07:00:10;;;;;;;9.35;2.70;;;;;;;20.36;68.72;100412.78;10335446;28;20064;-73
2021/07/18 07:05:13;;;;;;;5.68;2.30;;;;;;;21.12;67.06;100421.94;10334714;28;20038;-75
2021/07/18 07:10:20;;;;;;;4.95;1.75;;;;;;;20.63;68.05;100428.81;10333768;28;20080;-74
2021/07/18 07:15:21;;;;;;;4.57;2.30;;;;;;;21.11;66.91;100423.72;10333744;28;20108;-73
2021/07/18 07:20:23;;;;;;;3.03;1.98;;;;;;;21.05;66.52;100421.47;10335139;28;20054;-74
2021/07/18 07:25:29;;;;;;;5.75;2.00;;;;;;;21.36;67.17;100425.56;10335062;28;20054;-72
2021/07/18 07:30:31;;;;;;;4.85;1.83;;;;;;;21.70;64.88;100427.69;10332763;28;20046;-73
2021/07/18 07:35:32;;;;;;;4.18;1.90;;;;;;;21.37;65.72;100432.63;10334720;28;20054;-73
2021/07/18 07:40:34;;;;;;;7.25;2.30;;;;;;;21.01;68.58;100428.00;10337625;28;20050;-72
2021/07/18 07:45:36;;;;;;;3.83;2.15;;;;;;;21.28;65.64;100430.56;10341736;28;20049;-73
2021/07/18 07:50:38;;;;;;;3.90;1.83;;;;;;;21.38;66.24;100422.78;10343275;28;20047;-75
2021/07/18 07:55:40;;;;;;;4.93;2.10;;;;;;;21.65;66.89;100418.16;10342621;28;20514;-76
2021/07/18 08:00:42;;;;;;;4.15;1.90;;;;;;;21.39;65.49;100416.50;10339859;28;20053;-77
2021/07/18 08:05:44;;;;;;;3.67;1.92;;;;;;;21.57;64.25;100419.69;10341297;28;20046;-75
2021/07/18 08:10:46;;;;;;;8.20;2.00;;;;;;;21.79;64.19;100406.47;10341840;28;20089;-77
2021/07/18 08:15:47;;;;;;;4.30;1.77;;;;;;;21.94;64.64;100411.66;10340180;28;20050;-76
2021/07/18 08:20:49;;;;;;;4.32;2.08;;;;;;;22.23;62.36;100421.13;10341007;28;20465;-77
2021/07/18 08:25:50;;;;;;;5.95;1.73;;;;;;;22.66;61.51;100423.22;10341296;28;20046;-76
2021/07/18 08:30:52;;;;;;;3.33;1.70;;;;;;;22.82;61.38;100430.97;10339896;28;20046;-76
2021/07/18 08:35:54;;;;;;;3.55;1.67;;;;;;;22.51;61.04;100430.59;10402525;28;20049;-76
2021/07/18 08:40:56;;;;;;;4.78;1.92;;;;;;;22.62;62.19;100425.31;10400490;28;20046;-75
2021/07/18 08:46:20;;;;;;;4.00;2.00;;;;;;;22.60;60.37;100424.56;10382297;28;20073;-76
2021/07/18 08:51:22;;;;;;;3.65;1.35;;;;;;;22.81;60.17;100421.22;10378604;28;20058;-76
2021/07/18 08:56:23;;;;;;;4.50;1.60;;;;;;;22.89;60.89;100419.69;10381275;28;20583;-76
2021/07/18 09:01:26;;;;;;;2.20;1.30;;;;;;;22.60;59.97;100421.88;10384798;28;20111;-75
2021/07/18 09:06:47;;;;;;;3.80;1.40;;;;;;;23.10;59.96;100417.16;10400123;28;20124;-73
2021/07/18 09:11:59;;;;;;;4.55;1.42;;;;;;;23.61;58.16;100407.81;10420578;28;20128;-73
2021/07/18 09:17:03;;;;;;;2.78;1.17;;;;;;;23.06;60.11;100418.38;10421200;28;20049;-74
2021/07/18 09:22:09;;;;;;;4.05;1.40;;;;;;;23.26;58.91;100414.13;10391463;28;20053;-73
2021/07/18 09:27:29;;;;;;;3.50;1.50;;;;;;;23.93;58.77;100415.97;10378438;28;20046;-72
2021/07/18 09:32:33;;;;;;;4.80;1.70;;;;;;;23.51;59.74;100417.56;10379320;28;20056;-73
2021/07/18 09:37:40;;;;;;;5.50;1.60;;;;;;;23.88;59.93;100423.53;10378292;28;20041;-73
2021/07/18 09:42:45;;;;;;;6.57;1.45;;;;;;;24.41;57.92;100408.41;10414641;28;20045;-73
2021/07/18 09:48:07;;;;;;;3.08;1.42;;;;;;;24.39;54.87;100409.50;10405161;28;20056;-72
2021/07/18 09:53:20;;;;;;;2.63;1.40;;;;;;;25.52;56.03;100401.63;10375747;28;20050;-72
2021/07/18 09:58:23;;;;;;;3.55;1.25;;;;;;;25.22;53.55;100411.38;10375266;28;20555;-71
2021/07/18 10:03:27;;;;;;;3.78;1.20;;;;;;;24.29;54.42;100403.16;10376739;28;20041;-71
2021/07/18 10:08:30;;;;;;;2.63;1.40;;;;;;;25.36;53.53;100392.19;10376038;28;20053;-72
2021/07/18 10:13:32;;;;;;;2.22;1.20;;;;;;;24.63;53.84;100404.75;10377210;28;20136;-71
2021/07/18 10:18:35;;;;;;;2.92;1.38;;;;;;;25.14;52.42;100398.59;10391222;28;20080;-70
2021/07/18 10:23:40;;;;;;;2.50;1.30;;;;;;;24.75;54.00;100413.63;10379377;28;20037;-71
2021/07/18 10:28:50;;;;;;;3.78;1.50;;;;;;;25.00;54.37;100398.91;10415842;28;20053;-71
2021/07/18 10:33:55;;;;;;;6.47;1.75;;;;;;;25.28;52.70;100401.91;10395755;28;20046;-71
2021/07/18 10:38:57;;;;;;;2.93;1.30;;;;;;;25.70;51.77;100385.66;10376672;28;20068;-72
2021/07/18 10:44:11;;;;;;;2.40;1.15;;;;;;;25.86;51.21;100391.41;10376666;28;20034;-71
2021/07/18 10:49:14;;;;;;;3.60;1.50;;;;;;;25.89;50.94;100388.44;10377126;28;20046;-71
2021/07/18 10:54:19;;;;;;;3.03;1.60;;;;;;;26.05;51.07;100390.59;10376113;28;20120;-71
2021/07/18 10:59:38;;;;;;;3.25;2.05;;;;;;;26.59;48.95;100392.75;10375149;28;20144;-72
2021/07/18 11:04:43;;;;;;;5.05;2.58;;;;;;;26.32;51.53;100385.38;10374626;28;20041;-71
2021/07/18 11:09:50;;;;;;;2.58;1.10;;;;;;;26.85;47.22;100382.22;10375584;28;20072;-71
2021/07/18 11:14:53;;;;;;;1.92;1.20;;;;;;;26.61;49.21;100373.78;10379250;28;20096;-71
2021/07/18 11:20:05;;;;;;;2.55;1.08;;;;;;;26.05;50.79;100372.59;10384571;28;20444;-71
2021/07/18 11:25:07;;;;;;;1.80;0.88;;;;;;;25.96;51.09;100370.72;10384674;28;20096;-70
2021/07/18 11:30:35;;;;;;;2.28;1.10;;;;;;;26.66;49.97;100368.78;10384503;28;20049;-72
2021/07/18 11:35:37;;;;;;;2.55;1.40;;;;;;;26.41;48.05;100373.72;10385445;28;20052;-72
2021/07/18 11:40:39;;;;;;;4.28;1.38;;;;;;;26.52;49.49;100356.59;10383852;28;20042;-71
2021/07/18 11:45:40;;;;;;;3.15;1.50;;;;;;;26.74;48.09;100350.03;10383596;28;20041;-71
2021/07/18 11:50:42;;;;;;;1.77;0.93;;;;;;;27.16;47.29;100345.09;10383143;28;20057;-72
2021/07/18 11:55:43;;;;;;;1.80;1.02;;;;;;;26.01;50.31;100338.84;10382751;28;20053;-71
2021/07/18 12:00:55;;;;;;;3.00;1.40;;;;;;;26.00;49.89;100337.13;10383785;28;20050;-71
2021/07/18 12:05:57;;;;;;;2.53;1.67;;;;;;;25.57;52.33;100340.16;10380102;28;20404;-71
2021/07/18 12:11:04;;;;;;;1.58;1.15;;;;;;;25.97;49.74;100340.09;10380649;28;20400;-72
2021/07/18 12:16:06;;;;;;;1.90;1.27;;;;;;;25.57;50.49;100330.22;10379547;28;20046;-72
2021/07/18 12:21:23;;;;;;;2.25;1.10;;;;;;;25.41;53.89;100327.19;10376568;28;20048;-71
2021/07/18 12:26:24;;;;;;;3.53;1.15;;;;;;;26.59;48.59;100322.66;10411431;28;20049;-71
2021/07/18 12:31:27;;;;;;;1.42;1.20;;;;;;;26.86;47.32;100319.19;10420293;28;20396;-72
2021/07/18 12:36:29;;;;;;;1.83;1.33;;;;;;;26.78;48.53;100320.91;10392920;28;20136;-72
2021/07/18 12:41:31;;;;;;;3.22;1.30;;;;;;;27.16;45.88;100307.31;10379205;28;20462;-72
2021/07/18 12:46:33;;;;;;;3.55;1.02;;;;;;;27.60;45.51;100309.38;10378753;28;20042;-72
2021/07/18 12:51:35;;;;;;;1.52;1.10;;;;;;;27.59;45.90;100310.38;10378913;28;20044;-72
2021/07/18 12:56:37;;;;;;;1.80;1.00;;;;;;;27.21;46.23;100311.44;10378771;28;20053;-73
2021/07/18 13:01:39;;;;;;;1.63;1.00;;;;;;;27.30;45.48;100302.44;10378951;28;20041;-71
2021/07/18 13:06:42;;;;;;;2.70;1.25;;;;;;;26.99;46.42;100310.78;10379163;28;20451;-71
2021/07/18 13:11:45;;;;;;;2.80;0.90;;;;;;;27.17;47.19;100305.47;10379001;28;20382;-71
2021/07/18 13:16:48;;;;;;;3.63;1.23;;;;;;;27.16;46.44;100295.69;10379384;28;20435;-71
2021/07/18 13:21:59;;;;;;;2.70;1.10;;;;;;;26.78;47.22;100294.78;10380278;28;20052;-72
2021/07/18 13:27:17;;;;;;;3.58;1.40;;;;;;;26.67;45.85;100282.34;10417279;28;20037;-70
2021/07/18 13:32:22;;;;;;;2.25;1.58;;;;;;;27.31;45.79;100269.88;10420256;28;20457;-71
2021/07/18 13:37:29;;;;;;;2.08;1.17;;;;;;;27.61;45.32;100281.34;10419761;28;20037;-71
2021/07/18 13:42:36;;;;;;;1.67;1.20;;;;;;;27.56;46.35;100260.22;10420456;28;20037;-71
2021/07/18 13:47:38;;;;;;;1.40;1.20;;;;;;;27.43;45.03;100262.44;10420120;28;20041;-71
2021/07/18 13:52:40;;;;;;;2.03;1.10;;;;;;;26.91;46.42;100257.56;10420221;28;20060;-71
2021/07/18 13:57:42;;;;;;;1.33;1.10;;;;;;;27.19;46.17;100256.78;10463697;22;20045;-69
2021/07/18 14:02:43;;;;;;;2.58;1.73;;;;;;;27.23;46.41;100245.53;10459167;28;20128;-70
2021/07/18 14:07:45;;;;;;;4.57;1.30;;;;;;;26.99;45.58;100245.19;10457194;28;20045;-70
2021/07/18 14:12:47;;;;;;;2.88;1.10;;;;;;;26.96;46.46;100251.75;10456853;28;20052;-68
2021/07/18 14:17:50;;;;;;;3.10;1.45;;;;;;;27.10;45.74;100247.72;10458026;28;20048;-70
2021/07/18 14:22:53;;;;;;;2.13;1.20;;;;;;;27.14;45.91;100238.34;10457804;28;20037;-71
2021/07/18 14:27:59;;;;;;;8.17;1.10;;;;;;;27.47;44.48;100236.00;10456718;28;20036;-70
2021/07/18 14:33:02;;;;;;;1.42;0.90;;;;;;;27.24;45.87;100222.09;10456137;28;20049;-70
2021/07/18 14:38:06;;;;;;;2.88;1.30;;;;;;;27.56;45.60;100222.41;10455633;28;20359;-71
2021/07/18 14:43:08;;;;;;;1.48;1.00;;;;;;;27.59;45.45;100216.72;10456445;28;20399;-71
2021/07/18 14:48:10;;;;;;;1.40;1.08;;;;;;;27.32;44.42;100219.47;10456730;28;20112;-70
2021/07/18 14:53:12;;;;;;;1.73;1.10;;;;;;;27.09;45.32;100209.09;10456508;28;20037;-70
2021/07/18 14:58:13;;;;;;;1.15;1.00;;;;;;;27.25;44.38;100205.72;10455675;28;20048;-70
2021/07/18 15:03:15;;;;;;;2.13;1.20;;;;;;;27.66;45.17;100214.22;10457283;28;20045;-70
2021/07/18 15:08:17;;;;;;;1.25;1.15;;;;;;;27.50;44.75;100206.84;10456631;28;20067;-71
2021/07/18 15:13:18;;;;;;;1.27;1.13;;;;;;;27.61;45.32;100208.44;10457164;28;20413;-70
2021/07/18 15:18:20;;;;;;;2.05;0.90;;;;;;;27.64;43.83;100194.66;10457903;28;20068;-72
2021/07/18 15:23:21;;;;;;;1.40;0.80;;;;;;;27.39;42.94;100199.78;10457580;28;20045;-70
2021/07/18 15:28:23;;;;;;;1.63;1.00;;;;;;;27.69;43.03;100196.88;10456762;28;20053;-71
2021/07/18 15:33:25;;;;;;;1.08;1.00;;;;;;;27.82;42.19;100197.38;10455166;28;20453;-70
2021/07/18 15:38:26;;;;;;;1.42;1.00;;;;;;;28.09;40.95;100197.25;10457908;28;20143;-72
2021/07/18 15:43:28;;;;;;;2.03;0.95;;;;;;;27.81;41.70;100187.56;10456208;28;20047;-72
2021/07/18 15:48:30;;;;;;;1.75;1.17;;;;;;;28.28;41.35;100179.97;10462033;28;20049;-72
2021/07/18 15:53:31;;;;;;;2.50;1.10;;;;;;;28.70;40.91;100181.94;10455796;28;20041;-72
2021/07/18 15:58:33;;;;;;;1.02;0.82;;;;;;;28.17;42.52;100178.38;10454844;28;20056;-72
2021/07/18 16:03:39;;;;;;;1.50;1.10;;;;;;;29.29;39.77;100171.16;10462045;28;20045;-74
2021/07/18 16:08:41;;;;;;;1.70;0.80;;;;;;;27.99;42.32;100177.59;10465883;28;20051;-71
2021/07/18 16:13:43;;;;;;;2.58;1.20;;;;;;;27.15;43.65;100175.25;10463861;28;20037;-71
2021/07/18 16:18:44;;;;;;;1.08;0.80;;;;;;;27.43;43.79;100170.66;10463839;28;20569;-71
2021/07/18 16:23:46;;;;;;;2.40;0.95;;;;;;;27.28;43.59;100173.03;10462706;28;20041;-69
2021/07/18 16:28:48;;;;;;;3.40;1.20;;;;;;;27.25;45.51;100175.19;10462281;28;20079;-69
2021/07/18 16:33:49;;;;;;;1.65;1.10;;;;;;;26.88;43.34;100160.78;10462243;28;20135;-70
2021/07/18 16:38:51;;;;;;;1.88;1.30;;;;;;;26.81;43.90;100165.06;10463394;28;20076;-69
2021/07/18 16:43:53;;;;;;;1.75;1.17;;;;;;;26.85;44.79;100158.38;10462112;28;20183;-69
2021/07/18 16:48:54;;;;;;;2.70;1.23;;;;;;;26.34;46.06;100164.22;10460425;28;20045;-70
2021/07/18 16:53:56;;;;;;;3.70;1.65;;;;;;;26.27;46.38;100163.97;10461910;28;20425;-72
2021/07/18 16:58:58;;;;;;;1.45;1.20;;;;;;;26.51;45.46;100159.94;10460287;28;20449;-71
2021/07/18 17:04:02;;;;;;;2.35;1.98;;;;;;;26.32;46.05;100156.28;10462828;28;20049;-70
2021/07/18 17:09:04;;;;;;;2.47;1.40;;;;;;;25.88;47.36;100164.06;10460887;28;20102;-71
2021/07/18 17:14:05;;;;;;;2.13;1.42;;;;;;;25.99;47.29;100173.00;10460716;28;20059;-72
2021/07/18 17:19:07;;;;;;;1.65;1.20;;;;;;;25.87;47.65;100166.91;10460055;28;20041;-72
2021/07/18 17:24:09;;;;;;;1.25;1.00;;;;;;;25.74;48.82;100175.25;10460386;28;20406;-73
2021/07/18 17:29:11;;;;;;;1.75;1.20;;;;;;;25.61;48.82;100171.97;10458849;28;20395;-72
2021/07/18 17:34:12;;;;;;;2.30;1.90;;;;;;;25.44;48.80;100183.44;10459392;28;20045;-72
2021/07/18 17:39:15;;;;;;;2.55;1.50;;;;;;;25.26;49.50;100178.75;10459982;28;20044;-71
2021/07/18 17:44:17;;;;;;;3.30;2.08;;;;;;;25.21;49.07;100178.31;10459807;28;20037;-71
2021/07/18 17:49:19;;;;;;;3.40;1.10;;;;;;;25.06;50.10;100183.22;10459575;28;20044;-71
2021/07/18 17:54:21;;;;;;;2.45;1.67;;;;;;;25.30;49.46;100172.09;10458898;28;20052;-70
2021/07/18 17:59:25;;;;;;;1.65;1.20;;;;;;;25.14;49.49;100182.56;10458738;28;20516;-71
2021/07/18 18:04:27;;;;;;;1.20;1.10;;;;;;;25.11;49.75;100181.00;10457168;28;20106;-72
2021/07/18 18:09:29;;;;;;;1.75;1.30;;;;;;;25.27;48.98;100176.91;10460775;28;20045;-72
2021/07/18 18:14:30;;;;;;;1.98;1.20;;;;;;;24.97;50.06;100181.38;10458824;28;20045;-72
2021/07/18 18:19:32;;;;;;;2.28;1.00;;;;;;;24.74;50.08;100185.25;10460160;28;20045;-72
2021/07/18 18:24:34;;;;;;;2.00;1.00;;;;;;;24.73;50.33;100195.16;10459006;28;20094;-72
2021/07/18 18:29:36;;;;;;;1.27;1.00;;;;;;;24.58;51.50;100196.50;10459183;28;20463;-73
2021/07/18 18:34:39;;;;;;;1.77;1.10;;;;;;;24.56;51.42;100198.47;10458357;28;20041;-72
2021/07/18 18:39:40;;;;;;;1.85;1.30;;;;;;;24.57;50.98;100195.66;10458626;28;20520;-73
2021/07/18 18:44:42;;;;;;;3.90;1.38;;;;;;;24.47;51.32;100199.25;10458711;28;20114;-72
2021/07/18 18:49:44;;;;;;;1.90;1.50;;;;;;;24.31;52.18;100213.16;10458843;28;20513;-71
2021/07/18 18:54:45;;;;;;;3.30;1.63;;;;;;;24.01;53.45;100208.59;10468344;28;20048;-73
2021/07/18 18:59:47;;;;;;;2.95;1.20;;;;;;;23.86;54.24;100210.72;10484412;28;20036;-73
2021/07/18 19:04:48;;;;;;;2.85;1.20;;;;;;;23.94;52.98;100205.56;10465465;28;20037;-72
2021/07/18 19:09:52;;;;;;;1.83;1.15;;;;;;;24.05;52.84;100213.56;10467008;28;20052;-73
2021/07/18 19:14:54;;;;;;;4.72;1.20;;;;;;;23.79;53.06;100225.66;10502804;28;20047;-73
2021/07/18 19:19:55;;;;;;;4.60;3.15;;;;;;;23.50;54.64;100234.25;10502231;28;20052;-73
2021/07/18 19:24:57;;;;;;;3.30;1.40;;;;;;;23.49;54.56;100227.19;10502329;28;20406;-74
2021/07/18 19:29:59;;;;;;;1.83;1.60;;;;;;;23.19;56.16;100233.22;10473301;28;20057;-73
2021/07/18 19:35:01;;;;;;;2.72;1.20;;;;;;;23.16;56.02;100242.38;10470836;28;20033;-74
2021/07/18 19:40:04;;;;;;;1.55;1.08;;;;;;;23.28;55.29;100245.03;10506665;28;20044;-73
2021/07/18 19:45:06;;;;;;;3.30;1.10;;;;;;;22.73;57.83;100246.75;10506181;28;20047;-73
2021/07/18 19:50:10;;;;;;;2.08;1.30;;;;;;;22.37;59.16;100240.63;10506365;28;20040;-76
2021/07/18 19:55:15;;;;;;;2.05;1.65;;;;;;;22.22;60.43;100239.97;10513755;22;20121;-71
2021/07/18 20:00:21;;;;;;;1.63;1.27;;;;;;;22.42;58.45;100246.47;10469403;28;20036;-71
2021/07/18 20:05:23;;;;;;;3.08;1.55;;;;;;;22.35;58.78;100253.28;10450596;28;20115;-72
2021/07/18 20:10:29;;;;;;;2.85;1.08;;;;;;;22.53;57.67;100242.97;10469000;28;20049;-72
2021/07/18 20:15:31;;;;;;;3.22;0.95;;;;;;;22.29;59.33;100251.94;10468584;28;20698;-71
2021/07/18 20:20:38;;;;;;;2.20;1.40;;;;;;;22.28;58.55;100252.91;10450670;28;20041;-72
2021/07/18 20:25:39;;;;;;;3.20;1.40;;;;;;;22.03;59.82;100250.38;10466676;28;20060;-71
2021/07/18 20:30:41;;;;;;;4.03;1.60;;;;;;;22.23;58.46;100249.75;10468158;28;20052;-72
2021/07/18 20:35:43;;;;;;;3.80;1.10;;;;;;;22.33;58.42;100252.56;10467885;28;20124;-72
2021/07/18 20:40:45;;;;;;;3.70;1.20;;;;;;;22.18;58.83;100243.88;10468154;28;20413;-71
2021/07/18 20:45:46;;;;;;;4.10;1.50;;;;;;;22.07;59.23;100238.47;10464422;28;20037;-72
2021/07/18 20:50:52;;;;;;;1.53;1.17;;;;;;;21.87;60.17;100235.47;10466708;28;20136;-72
2021/07/18 20:55:54;;;;;;;4.13;1.17;;;;;;;21.67;60.38;100238.78;10463865;28;20063;-70
2021/07/18 21:00:55;;;;;;;1.60;1.20;;;;;;;21.58;60.80;100226.97;10464859;28;20040;-71
2021/07/18 21:05:57;;;;;;;1.98;1.10;;;;;;;21.56;60.94;100236.06;10462314;28;20124;-72
2021/07/18 21:10:58;;;;;;;5.07;1.20;;;;;;;21.51;60.92;100228.38;10466935;28;20065;-72
2021/07/18 21:16:07;;;;;;;3.95;1.42;;;;;;;21.41;61.12;100235.38;10448458;28;20040;-71
2021/07/18 21:21:15;;;;;;;3.67;1.48;;;;;;;21.15;62.16;100227.41;10447589;28;20047;-71
2021/07/18 21:26:17;;;;;;;6.30;1.40;;;;;;;20.97;62.57;100235.91;10444767;28;20041;-72
2021/07/18 21:31:19;;;;;;;6.80;1.85;;;;;;;21.02;62.67;100231.94;10460621;28;20041;-71
2021/07/18 21:36:21;;;;;;;6.97;1.40;;;;;;;20.97;62.81;100230.56;10460266;28;20495;-71
2021/07/18 21:41:22;;;;;;;2.30;1.60;;;;;;;20.87;63.20;100233.88;10459556;28;20128;-72
2021/07/18 21:46:24;;;;;;;2.88;1.58;;;;;;;20.79;64.52;100233.56;10443018;28;20041;-72
2021/07/18 21:51:26;;;;;;;2.42;1.55;;;;;;;20.53;64.63;100238.09;10458843;28;20070;-71
2021/07/18 21:56:27;;;;;;;3.15;1.50;;;;;;;20.79;63.87;100230.06;10458210;28;20075;-71
2021/07/18 22:01:29;;;;;;;1.98;1.58;;;;;;;20.68;64.31;100227.31;10439595;28;20059;-72
2021/07/18 22:06:31;;;;;;;2.78;1.60;;;;;;;20.45;65.77;100232.38;10458618;28;20056;-71
2021/07/18 22:11:32;;;;;;;4.75;1.88;;;;;;;20.13;67.02;100232.78;10459395;28;20044;-71
2021/07/18 22:16:34;;;;;;;2.40;1.83;;;;;;;19.97;68.53;100226.81;10459233;28;20053;-71
2021/07/18 22:21:38;;;;;;;4.20;2.40;;;;;;;19.86;68.81;100235.53;10441348;28;20056;-72
2021/07/18 22:26:40;;;;;;;2.95;2.25;;;;;;;19.74;70.67;100228.34;10457606;28;20037;-71
2021/07/18 22:31:41;;;;;;;2.40;2.20;;;;;;;19.62;70.34;100231.84;10457520;28;20072;-71
2021/07/18 22:36:43;;;;;;;4.15;2.55;;;;;;;19.65;70.47;100231.63;10459222;28;20052;-72
2021/07/18 22:41:45;;;;;;;2.15;1.95;;;;;;;19.76;70.50;100233.59;10458035;28;20041;-72
2021/07/18 22:46:46;;;;;;;3.13;2.00;;;;;;;19.80;70.30;100227.09;10457439;28;20048;-72
2021/07/18 22:51:48;;;;;;;4.70;2.25;;;;;;;20.05;68.96;100220.94;10457411;28;20041;-71
2021/07/18 22:56:50;;;;;;;7.78;1.98;;;;;;;20.20;67.50;100229.72;10456211;28;20095;-71
2021/07/18 23:01:52;;;;;;;3.25;2.45;;;;;;;20.32;66.57;100232.41;10456414;28;20048;-71
2021/07/18 23:06:55;;;;;;;2.45;2.20;;;;;;;20.58;65.34;100222.59;10457065;28;20037;-71
2021/07/18 23:11:57;;;;;;;5.03;2.17;;;;;;;20.40;66.29;100224.69;10467167;28;20036;-72